createdAt,value
2022-11-23T00:00:13.451Z,90765.50
2022-11-23T00:02:46.548Z,90774.50
2022-11-23T00:05:19.011Z,90784.91
2022-11-23T00:07:51.710Z,90777.13
2022-11-23T00:10:24.222Z,90780.63
2022-11-23T00:12:56.667Z,90775.53
2022-11-23T00:15:31.836Z,90770.47
2022-11-23T00:18:05.018Z,90770.34
2022-11-23T00:20:39.303Z,90754.97
2022-11-23T00:23:11.913Z,90761.53
2022-11-23T00:25:45.471Z,90760.44
2022-11-23T00:28:17.919Z,90765.94
2022-11-23T00:30:51.521Z,90768.69
2022-11-23T00:33:24.681Z,90765.63
2022-11-23T00:36:00.222Z,90757.56
2022-11-23T00:38:33.014Z,90774.50
2022-11-23T00:41:08.069Z,90758.00
2022-11-23T00:43:41.008Z,90754.94
2022-11-23T00:46:15.615Z,90751.94
2022-11-23T00:48:50.404Z,90746.25
2022-11-23T00:51:24.516Z,90763.16
2022-11-23T00:53:57.813Z,90758.31
2022-11-23T00:56:32.471Z,90757.78
2022-11-23T00:59:05.228Z,90768.78
2022-11-23T01:01:38.664Z,90756.00
2022-11-23T01:04:11.725Z,90751.00
2022-11-23T01:06:44.238Z,90744.16
2022-11-23T01:09:18.554Z,90749.09
2022-11-23T01:11:51.608Z,90748.03
2022-11-23T01:14:24.465Z,90745.75
2022-11-23T01:16:56.859Z,90749.38
2022-11-23T01:19:30.410Z,90748.63
2022-11-23T01:22:02.898Z,90748.19
2022-11-23T01:24:35.273Z,90741.16
2022-11-23T01:27:07.640Z,90727.44
2022-11-23T01:29:39.974Z,90724.94
2022-11-23T01:32:12.363Z,90721.50
2022-11-23T01:34:45.374Z,90730.81
2022-11-23T01:37:17.715Z,90739.19
2022-11-23T01:39:50.207Z,90734.00
2022-11-23T01:42:22.616Z,90729.56
2022-11-23T01:45:35.199Z,90731.28
2022-11-23T01:48:14.633Z,90742.44
2022-11-23T01:50:51.391Z,90732.69
2022-11-23T01:53:27.628Z,90738.63
2022-11-23T01:56:02.349Z,90728.03
2022-11-23T01:58:39.696Z,90720.84
2022-11-23T02:01:12.827Z,90711.06
2022-11-23T02:03:48.093Z,90724.97
2022-11-23T02:06:22.849Z,90711.00
2022-11-23T02:08:56.016Z,90709.41
2022-11-23T02:11:28.725Z,90719.16
2022-11-23T02:14:01.415Z,90711.25
2022-11-23T02:16:37.270Z,90715.81
2022-11-23T02:19:22.022Z,90717.50
2022-11-23T02:21:55.958Z,90717.81
2022-11-23T02:24:34.633Z,90698.09
2022-11-23T02:27:07.745Z,90713.22
2022-11-23T02:29:40.388Z,90711.22
2022-11-23T02:32:17.709Z,90700.06
2022-11-23T02:34:51.665Z,90696.59
2022-11-23T02:37:25.451Z,90702.81
2022-11-23T02:39:59.471Z,90698.13
2022-11-23T02:42:33.168Z,90691.88
2022-11-23T02:45:15.690Z,90683.69
2022-11-23T02:47:48.577Z,90679.09
2022-11-23T02:50:20.954Z,90670.63
2022-11-23T02:52:53.285Z,90673.78
2022-11-23T02:55:25.653Z,90665.44
2022-11-23T02:57:58.879Z,90657.81
2022-11-23T03:00:32.235Z,90668.63
2022-11-23T03:03:05.544Z,90660.41
2022-11-23T03:05:38.631Z,90659.63
2022-11-23T03:08:11.619Z,90652.28
2022-11-23T03:10:45.344Z,90660.09
2022-11-23T03:13:18.387Z,90652.00
2022-11-23T03:15:55.457Z,90643.75
2022-11-23T03:18:28.039Z,90646.16
2022-11-23T03:21:02.576Z,90643.69
2022-11-23T03:23:35.552Z,90653.44
2022-11-23T03:26:13.037Z,90645.47
2022-11-23T03:28:56.201Z,90644.28
2022-11-23T03:31:32.547Z,90650.53
2022-11-23T03:34:05.742Z,90646.00
2022-11-23T03:36:40.152Z,90645.81
2022-11-23T03:39:12.502Z,90644.22
2022-11-23T03:42:13.880Z,90635.75
2022-11-23T03:44:46.877Z,90632.06
2022-11-23T03:47:20.442Z,90622.03
2022-11-23T03:49:52.799Z,90620.22
2022-11-23T03:52:25.249Z,90624.34
2022-11-23T03:54:57.750Z,90621.38
2022-11-23T03:57:30.181Z,90623.06
2022-11-23T04:00:04.860Z,90628.91
2022-11-23T04:02:45.863Z,90635.94
2022-11-23T04:05:38.117Z,90639.78
2022-11-23T04:08:32.053Z,90633.97
2022-11-23T04:11:05.256Z,90638.53
2022-11-23T04:13:43.269Z,90639.44
2022-11-23T04:16:16.380Z,90627.69
2022-11-23T04:18:48.766Z,90626.13
2022-11-23T04:21:22.022Z,90624.75
2022-11-23T04:23:54.511Z,90624.75
2022-11-23T04:26:26.917Z,90631.78
2022-11-23T04:28:59.851Z,90634.66
2022-11-23T04:31:33.275Z,90643.66
2022-11-23T04:34:20.322Z,90651.28
2022-11-23T04:36:54.835Z,90648.53
2022-11-23T04:39:33.616Z,90649.91
2022-11-23T04:42:35.592Z,90651.44
2022-11-23T04:45:08.749Z,90657.06
2022-11-23T04:47:42.305Z,90648.19
2022-11-23T04:50:18.883Z,90653.84
2022-11-23T04:52:56.421Z,90653.69
2022-11-23T04:55:35.833Z,90664.34
2022-11-23T04:58:08.204Z,90656.44
2022-11-23T05:00:40.834Z,90658.44
2022-11-23T05:03:15.320Z,90667.28
2022-11-23T05:05:48.749Z,90657.94
2022-11-23T05:08:21.176Z,90656.13
2022-11-23T05:11:13.442Z,90651.53
2022-11-23T05:13:46.063Z,90653.19
2022-11-23T05:16:18.542Z,90653.84
2022-11-23T05:18:51.557Z,90644.84
2022-11-23T05:21:24.264Z,90662.06
2022-11-23T05:23:57.386Z,90656.84
2022-11-23T05:26:29.799Z,90648.94
2022-11-23T05:29:02.180Z,90647.41
2022-11-23T05:31:34.682Z,90648.00
2022-11-23T05:34:07.813Z,90652.47
2022-11-23T05:36:49.154Z,90654.41
2022-11-23T05:39:22.535Z,90653.66
2022-11-23T05:41:57.487Z,90646.97
2022-11-23T05:44:50.100Z,90644.34
2022-11-23T05:47:30.516Z,90645.88
2022-11-23T05:50:04.190Z,90650.00
2022-11-23T05:52:37.475Z,90647.69
2022-11-23T05:55:09.898Z,90638.22
2022-11-23T05:57:42.749Z,90626.28
2022-11-23T06:00:16.198Z,90625.69
2022-11-23T06:03:00.709Z,90625.25
2022-11-23T06:05:34.521Z,90647.91
2022-11-23T06:08:06.999Z,90647.47
2022-11-23T06:10:39.415Z,90637.97
2022-11-23T06:13:12.040Z,90648.81
2022-11-23T06:15:44.430Z,90644.34
2022-11-23T06:18:17.874Z,90648.84
2022-11-23T06:20:54.987Z,90658.88
2022-11-23T06:23:28.489Z,90680.25
2022-11-23T06:26:03.118Z,90687.09
2022-11-23T06:28:38.236Z,90677.81
2022-11-23T06:31:17.273Z,90659.81
2022-11-23T06:33:51.741Z,90689.00
2022-11-23T06:36:24.816Z,90688.84
2022-11-23T06:38:57.770Z,90698.59
2022-11-23T06:41:32.647Z,90685.16
2022-11-23T06:44:07.028Z,90683.19
2022-11-23T06:46:45.084Z,90679.22
2022-11-23T06:49:19.801Z,90661.56
2022-11-23T06:52:01.677Z,90664.00
2022-11-23T06:54:34.364Z,90668.25
2022-11-23T06:57:07.720Z,90667.31
2022-11-23T06:59:44.574Z,90665.59
2022-11-23T07:02:19.225Z,90658.09
2022-11-23T07:04:52.181Z,90673.34
2022-11-23T07:07:26.574Z,90675.34
2022-11-23T07:10:08.454Z,90673.56
2022-11-23T07:12:52.211Z,90673.16
2022-11-23T07:15:26.746Z,90687.28
2022-11-23T07:17:59.311Z,90686.44
2022-11-23T07:20:31.831Z,90687.63
2022-11-23T07:23:06.722Z,90695.94
2022-11-23T07:25:39.225Z,90700.03
2022-11-23T07:28:13.320Z,90692.94
2022-11-23T07:30:45.810Z,90698.78
2022-11-23T07:33:20.574Z,90696.88
2022-11-23T07:35:54.084Z,90695.78
2022-11-23T07:38:27.460Z,90698.06
2022-11-23T07:41:01.037Z,90695.44
2022-11-23T07:44:06.201Z,90686.03
2022-11-23T07:46:38.714Z,90688.00
2022-11-23T07:49:11.154Z,90694.41
2022-11-23T07:51:43.512Z,90707.16
2022-11-23T07:54:22.171Z,90701.53
2022-11-23T07:56:56.001Z,90691.56
2022-11-23T07:59:28.921Z,90706.69
2022-11-23T08:02:01.454Z,90691.09
2022-11-23T08:04:34.218Z,90692.53
2022-11-23T08:07:06.980Z,90682.91
2022-11-23T08:09:40.450Z,90690.44
2022-11-23T08:12:12.863Z,90688.25
2022-11-23T08:14:45.231Z,90696.47
2022-11-23T08:17:17.809Z,90680.75
2022-11-23T08:19:50.177Z,90682.19
2022-11-23T08:22:22.661Z,90690.78
2022-11-23T08:24:55.891Z,90691.31
2022-11-23T08:27:28.204Z,90690.91
2022-11-23T08:30:00.601Z,90688.88
2022-11-23T08:32:33.027Z,90692.06
2022-11-23T08:35:06.411Z,90697.06
2022-11-23T08:37:38.842Z,90691.22
2022-11-23T08:40:13.526Z,90687.69
2022-11-23T08:42:46.425Z,90681.53
2022-11-23T08:45:18.861Z,90679.50
2022-11-23T08:47:52.314Z,90690.22
2022-11-23T08:50:24.784Z,90688.72
2022-11-23T08:52:58.008Z,90690.47
2022-11-23T08:55:31.084Z,90699.16
2022-11-23T08:58:03.441Z,90700.38
2022-11-23T09:00:36.158Z,90701.66
2022-11-23T09:03:08.550Z,90704.69
2022-11-23T09:05:40.940Z,90700.78
2022-11-23T09:08:14.528Z,90703.50
2022-11-23T09:10:47.714Z,90709.16
2022-11-23T09:13:20.152Z,90701.44
2022-11-23T09:15:56.447Z,90690.91
2022-11-23T09:18:29.831Z,90691.44
2022-11-23T09:21:03.784Z,90690.31
2022-11-23T09:23:36.493Z,90684.13
2022-11-23T09:26:10.054Z,90689.19
2022-11-23T09:28:44.905Z,90692.25
2022-11-23T09:31:17.516Z,90685.03
2022-11-23T09:33:52.606Z,90684.47
2022-11-23T09:36:25.594Z,90682.59
2022-11-23T09:38:58.149Z,90679.06
2022-11-23T09:41:51.215Z,90670.16
2022-11-23T09:44:35.153Z,90669.31
2022-11-23T09:47:27.917Z,90662.81
2022-11-23T09:50:08.445Z,90680.34
2022-11-23T09:52:45.153Z,90677.69
2022-11-23T09:55:24.731Z,90687.28
2022-11-23T09:58:01.247Z,90686.44
2022-11-23T10:00:38.461Z,90685.19
2022-11-23T10:03:15.454Z,90685.41
2022-11-23T10:06:01.679Z,90690.63
2022-11-23T10:08:45.172Z,90686.00
2022-11-23T10:11:35.183Z,90674.53
2022-11-23T10:14:23.358Z,90680.03
2022-11-23T10:17:05.047Z,90683.25
2022-11-23T10:19:57.220Z,90674.31
2022-11-23T10:22:37.424Z,90684.75
2022-11-23T10:25:15.640Z,90691.25
2022-11-23T10:27:50.609Z,90688.72
2022-11-23T10:30:23.682Z,90686.81
2022-11-23T10:33:02.537Z,90692.56
2022-11-23T10:35:37.564Z,90690.09
2022-11-23T10:38:18.125Z,90679.69
2022-11-23T10:41:00.922Z,90682.53
2022-11-23T10:43:41.349Z,90685.44
2022-11-23T10:46:27.220Z,90698.31
2022-11-23T10:49:16.080Z,90686.50
2022-11-23T10:51:55.894Z,90679.75
2022-11-23T10:54:32.454Z,90686.91
2022-11-23T10:57:25.830Z,90680.63
2022-11-23T11:00:00.426Z,90684.63
2022-11-23T11:02:40.540Z,90677.59
2022-11-23T11:05:40.180Z,90673.63
2022-11-23T11:08:18.279Z,90659.78
2022-11-23T11:10:58.410Z,90660.75
2022-11-23T11:13:32.720Z,90663.88
2022-11-23T11:16:06.854Z,90667.63
2022-11-23T11:18:39.883Z,90656.84
2022-11-23T11:21:19.745Z,90666.97
2022-11-23T11:23:54.100Z,90655.56
2022-11-23T11:26:29.605Z,90656.88
2022-11-23T11:29:04.470Z,90654.59
2022-11-23T11:31:51.245Z,90647.53
2022-11-23T11:34:30.138Z,90660.63
2022-11-23T11:37:11.853Z,90660.28
2022-11-23T11:39:49.735Z,90658.25
2022-11-23T11:42:33.294Z,90637.16
2022-11-23T11:45:15.489Z,90654.72
2022-11-23T11:47:53.718Z,90653.56
2022-11-23T11:50:32.170Z,90658.63
2022-11-23T11:53:11.712Z,90653.84
2022-11-23T11:55:51.750Z,90660.81
2022-11-23T11:58:25.597Z,90649.19
2022-11-23T12:01:08.595Z,90649.44
2022-11-23T12:03:46.966Z,90646.69
2022-11-23T12:06:26.906Z,90659.69
2022-11-23T12:09:03.467Z,90648.72
2022-11-23T12:11:36.646Z,90655.91
2022-11-23T12:14:12.872Z,90660.19
2022-11-23T12:17:16.834Z,90649.84
2022-11-23T12:19:56.668Z,90653.16
2022-11-23T12:22:44.001Z,90661.91
2022-11-23T12:25:24.424Z,90668.25
2022-11-23T12:28:05.917Z,90661.41
2022-11-23T12:30:48.436Z,90663.16
2022-11-23T12:33:54.974Z,90662.75
2022-11-23T12:36:52.233Z,90668.03
2022-11-23T12:39:44.937Z,90670.00
2022-11-23T12:42:23.591Z,90661.06
2022-11-23T12:45:35.027Z,90658.94
2022-11-23T12:48:40.435Z,90659.03
2022-11-23T12:51:23.307Z,90658.84
2022-11-23T12:54:10.465Z,90669.22
2022-11-23T12:57:00.033Z,90659.69
2022-11-23T12:59:44.040Z,90668.34
2022-11-23T13:02:55.758Z,90681.75
2022-11-23T13:06:04.132Z,90681.56
2022-11-23T13:08:59.334Z,90675.59
2022-11-23T13:11:47.644Z,90669.06
2022-11-23T13:14:27.592Z,90673.59
2022-11-23T13:17:15.249Z,90672.22
2022-11-23T13:20:01.187Z,90681.31
2022-11-23T13:22:34.753Z,90689.09
2022-11-23T13:25:23.462Z,90689.91
2022-11-23T13:28:03.590Z,90686.53
2022-11-23T13:31:07.317Z,90686.97
2022-11-23T13:33:37.697Z,90682.72
2022-11-23T13:36:16.876Z,90691.69
2022-11-23T13:38:52.160Z,90694.22
2022-11-23T13:41:59.845Z,90701.59
2022-11-23T13:44:33.388Z,90694.22
2022-11-23T13:47:18.750Z,90704.88
2022-11-23T13:49:52.452Z,90715.09
2022-11-23T13:52:30.513Z,90711.84
2022-11-23T13:55:17.268Z,90722.13
2022-11-23T13:58:22.613Z,90723.25
2022-11-23T14:00:57.019Z,90718.81
2022-11-23T14:03:51.535Z,90720.66
2022-11-23T14:06:41.726Z,90716.13
2022-11-23T14:09:21.959Z,90725.66
2022-11-23T14:12:02.317Z,90725.78
2022-11-23T14:14:46.921Z,90726.75
2022-11-23T14:17:52.931Z,90734.03
2022-11-23T14:20:35.900Z,90738.94
2022-11-23T14:24:01.716Z,90734.69
2022-11-23T14:26:41.383Z,90747.06
2022-11-23T14:29:27.785Z,90745.44
2022-11-23T14:32:31.665Z,90746.97
2022-11-23T14:35:22.545Z,90756.91
2022-11-23T14:38:30.305Z,90750.41
2022-11-23T14:41:07.844Z,90757.91
2022-11-23T14:43:42.498Z,90755.19
2022-11-23T14:46:18.384Z,90760.50
2022-11-23T14:48:52.278Z,90754.66
2022-11-23T14:51:26.218Z,90759.09
2022-11-23T14:54:01.374Z,90758.22
2022-11-23T14:56:36.787Z,90760.28
2022-11-23T14:59:17.904Z,90736.69
2022-11-23T15:01:52.931Z,90759.38
2022-11-23T15:04:33.388Z,90761.34
2022-11-23T15:07:12.999Z,90762.41
2022-11-23T15:09:51.426Z,90766.75
2022-11-23T15:12:25.820Z,90768.97
2022-11-23T15:14:58.387Z,90778.53
2022-11-23T15:17:31.001Z,90777.13
2022-11-23T15:20:04.156Z,90768.13
2022-11-23T15:22:37.064Z,90775.06
2022-11-23T15:25:15.567Z,90765.16
2022-11-23T15:27:48.507Z,90763.34
2022-11-23T15:30:27.101Z,90762.13
2022-11-23T15:33:03.101Z,90762.78
2022-11-23T15:35:37.603Z,90760.50
2022-11-23T15:38:14.942Z,90765.91
2022-11-23T15:40:50.905Z,90758.84
2022-11-23T15:43:23.334Z,90764.69
2022-11-23T15:46:03.821Z,90763.81
2022-11-23T15:48:36.440Z,90767.19
2022-11-23T15:51:24.421Z,90771.19
2022-11-23T15:53:59.725Z,90768.59
2022-11-23T15:56:35.698Z,90765.53
2022-11-23T15:59:28.121Z,90767.06
2022-11-23T16:02:02.497Z,90764.97
2022-11-23T16:04:38.755Z,90768.00
2022-11-23T16:07:20.221Z,90774.41
2022-11-23T16:10:11.995Z,90770.38
2022-11-23T16:12:49.602Z,90767.75
2022-11-23T16:15:40.768Z,90758.81
2022-11-23T16:18:21.806Z,90778.69
2022-11-23T16:20:57.872Z,90775.75
2022-11-23T16:23:42.459Z,90787.56
2022-11-23T16:26:15.747Z,90788.09
2022-11-23T16:28:50.999Z,90796.00
2022-11-23T16:31:28.311Z,90796.97
2022-11-23T16:34:00.758Z,90798.50
2022-11-23T16:36:33.142Z,90799.69
2022-11-23T16:39:06.019Z,90804.78
2022-11-23T16:41:38.625Z,90802.19
2022-11-23T16:44:11.651Z,90813.44
2022-11-23T16:46:46.029Z,90805.84
2022-11-23T16:49:19.886Z,90804.78
2022-11-23T16:51:57.065Z,90804.31
2022-11-23T16:54:29.919Z,90809.81
2022-11-23T16:57:03.959Z,90806.53
2022-11-23T16:59:36.972Z,90806.53
2022-11-23T17:02:14.093Z,90806.22
2022-11-23T17:04:46.839Z,90804.84
2022-11-23T17:07:19.323Z,90807.75
2022-11-23T17:09:51.831Z,90803.09
2022-11-23T17:12:24.266Z,90808.06
2022-11-23T17:14:59.321Z,90807.63
2022-11-23T17:17:31.899Z,90814.25
2022-11-23T17:20:05.039Z,90821.41
2022-11-23T17:22:37.524Z,90822.81
2022-11-23T17:25:14.966Z,90831.88
2022-11-23T17:27:47.915Z,90830.16
2022-11-23T17:30:21.900Z,90814.63
2022-11-23T17:32:54.496Z,90823.31
2022-11-23T17:35:27.220Z,90821.22
2022-11-23T17:37:59.647Z,90826.72
2022-11-23T17:40:32.094Z,90815.25
2022-11-23T17:43:04.464Z,90816.81
2022-11-23T17:45:37.979Z,90825.31
2022-11-23T17:48:12.298Z,90828.22
2022-11-23T17:50:46.887Z,90818.91
2022-11-23T17:53:24.112Z,90821.09
2022-11-23T17:55:57.786Z,90823.41
2022-11-23T17:58:30.170Z,90834.69
2022-11-23T18:01:03.612Z,90837.91
2022-11-23T18:03:36.133Z,90836.97
2022-11-23T18:06:12.709Z,90839.84
2022-11-23T18:08:46.513Z,90843.19
2022-11-23T18:11:19.897Z,90842.75
2022-11-23T18:13:52.748Z,90844.09
2022-11-23T18:16:25.813Z,90840.44
2022-11-23T18:18:58.320Z,90853.84
2022-11-23T18:21:30.669Z,90846.81
2022-11-23T18:24:04.928Z,90860.84
2022-11-23T18:26:37.430Z,90869.75
2022-11-23T18:29:15.561Z,90863.75
2022-11-23T18:31:49.997Z,90862.28
2022-11-23T18:34:22.535Z,90861.16
2022-11-23T18:36:54.901Z,90863.72
2022-11-23T18:39:27.337Z,90865.84
2022-11-23T18:42:05.298Z,90876.38
2022-11-23T18:44:38.250Z,90873.06
2022-11-23T18:47:11.219Z,90879.31
2022-11-23T18:49:43.577Z,90876.84
2022-11-23T18:52:16.489Z,90868.91
2022-11-23T18:54:48.862Z,90866.19
2022-11-23T18:57:21.304Z,90871.59
2022-11-23T18:59:58.251Z,90874.94
2022-11-23T19:02:31.818Z,90873.94
2022-11-23T19:05:04.689Z,90873.47
2022-11-23T19:07:37.517Z,90872.78
2022-11-23T19:10:10.244Z,90865.59
2022-11-23T19:12:43.241Z,90865.88
2022-11-23T19:15:15.655Z,90870.91
2022-11-23T19:17:48.667Z,90868.94
2022-11-23T19:20:22.874Z,90864.31
2022-11-23T19:22:55.600Z,90864.63
2022-11-23T19:25:29.035Z,90871.09
2022-11-23T19:28:01.388Z,90866.53
2022-11-23T19:30:33.864Z,90864.88
2022-11-23T19:33:06.897Z,90870.81
2022-11-23T19:35:39.275Z,90866.72
2022-11-23T19:38:11.653Z,90867.47
2022-11-23T19:40:44.069Z,90874.91
2022-11-23T19:43:16.413Z,90867.00
2022-11-23T19:45:53.450Z,90873.31
2022-11-23T19:48:26.963Z,90880.53
2022-11-23T19:51:01.678Z,90866.44
2022-11-23T19:53:35.823Z,90875.56
2022-11-23T19:56:11.927Z,90869.50
2022-11-23T19:58:44.420Z,90879.91
2022-11-23T20:01:19.837Z,90888.28
2022-11-23T20:03:54.723Z,90881.53
2022-11-23T20:06:28.588Z,90883.38
2022-11-23T20:09:03.095Z,90888.97
2022-11-23T20:11:37.744Z,90893.78
2022-11-23T20:14:11.232Z,90899.75
2022-11-23T20:16:43.713Z,90907.41
2022-11-23T20:19:16.838Z,90909.41
2022-11-23T20:21:49.307Z,90916.56
2022-11-23T20:24:21.644Z,90911.38
2022-11-23T20:26:54.045Z,90911.84
2022-11-23T20:29:27.209Z,90916.44
2022-11-23T20:31:59.759Z,90916.59
2022-11-23T20:34:32.991Z,90921.34
2022-11-23T20:37:05.750Z,90928.81
2022-11-23T20:39:38.075Z,90925.28
2022-11-23T20:42:10.434Z,90921.63
2022-11-23T20:44:42.785Z,90915.31
2022-11-23T20:47:15.166Z,90924.50
2022-11-23T20:49:48.205Z,90917.19
2022-11-23T20:52:20.674Z,90919.31
2022-11-23T20:54:53.092Z,90912.91
2022-11-23T20:57:25.606Z,90916.25
2022-11-23T20:59:58.125Z,90925.28
2022-11-23T21:02:30.525Z,90922.06
2022-11-23T21:05:04.153Z,90928.81
2022-11-23T21:07:36.687Z,90927.09
2022-11-23T21:10:09.478Z,90927.56
2022-11-23T21:12:59.697Z,90926.47
2022-11-23T21:15:32.070Z,90922.19
2022-11-23T21:18:04.459Z,90932.88
2022-11-23T21:20:37.566Z,90931.66
2022-11-23T21:23:10.158Z,90927.84
2022-11-23T21:25:42.544Z,90927.56
2022-11-23T21:28:15.038Z,90923.41
2022-11-23T21:30:47.391Z,90918.41
2022-11-23T21:33:19.748Z,90915.63
2022-11-23T21:35:52.727Z,90915.81
2022-11-23T21:38:30.494Z,90911.84
2022-11-23T21:43:50.726Z,90913.06
2022-11-23T21:46:23.843Z,90904.34
2022-11-23T21:48:58.096Z,90913.81
2022-11-23T21:51:31.567Z,90911.84
2022-11-23T21:54:05.820Z,90907.25
2022-11-23T21:56:38.218Z,90918.72
2022-11-23T21:59:10.915Z,90909.88
2022-11-23T22:01:43.270Z,90913.06
2022-11-23T22:04:16.321Z,90914.75
2022-11-23T22:06:49.308Z,90915.56
2022-11-23T22:09:21.633Z,90915.53
2022-11-23T22:11:53.966Z,90909.56
2022-11-23T22:14:26.363Z,90911.72
2022-11-23T22:16:59.861Z,90919.78
2022-11-23T22:19:32.222Z,90923.50
2022-11-23T22:22:06.653Z,90919.97
2022-11-23T22:24:39.399Z,90922.56
2022-11-23T22:27:11.736Z,90923.16
2022-11-23T22:29:44.101Z,90926.84
2022-11-23T22:32:16.419Z,90936.94
2022-11-23T22:34:49.114Z,90933.41
2022-11-23T22:37:22.094Z,90933.56
2022-11-23T22:39:54.485Z,90938.59
2022-11-23T22:42:26.854Z,90931.16
2022-11-23T22:44:59.178Z,90936.78
2022-11-23T22:47:32.400Z,90942.44
2022-11-23T22:50:05.915Z,90951.00
2022-11-23T22:52:38.898Z,90943.06
2022-11-23T22:55:11.257Z,90941.38
2022-11-23T22:57:43.645Z,90933.25
2022-11-23T23:00:16.125Z,90936.94
2022-11-23T23:02:48.609Z,90942.13
2022-11-23T23:05:21.110Z,90933.75
2022-11-23T23:07:55.104Z,90929.16
2022-11-23T23:10:28.922Z,90927.47
2022-11-23T23:13:01.410Z,90936.63
2022-11-23T23:15:33.755Z,90940.47
2022-11-23T23:18:06.514Z,90932.19
2022-11-23T23:20:38.893Z,90945.34
2022-11-23T23:23:11.914Z,90947.31
2022-11-23T23:25:44.445Z,90945.94
2022-11-23T23:28:16.753Z,90947.16
2022-11-23T23:30:49.134Z,90944.72
2022-11-23T23:33:21.459Z,90953.09
2022-11-23T23:35:53.830Z,90954.81
2022-11-23T23:38:26.879Z,90947.94
2022-11-23T23:40:59.434Z,90943.22
2022-11-23T23:43:32.159Z,90939.69
2022-11-23T23:46:06.717Z,90943.38
2022-11-23T23:48:40.304Z,90952.69
2022-11-23T23:51:17.810Z,90959.25
2022-11-23T23:53:52.050Z,90950.56
2022-11-23T23:56:26.180Z,90945.19
2022-11-23T23:58:59.477Z,90956.66
